UNT weather

Unst Airport
Shetland Islands, Scotland, United Kingdom

Public forecast

Using degrees Celsius for public forecast. Weather courtesy of forecast.io.

METAR (pilot weather report)

Closest report is Scatsta Airport, 22.9 nm (42.5 km) SW. Retrieved 2019/05/27 12:20 UTC (22 minutes ago):

EGPM 271220Z 34012KT 9999 VCSH FEW020 09/00 Q1005

TAF (pilot weather forecast)

Forecast is more than 12 hours old.

Closest forecast is Scatsta Airport, 22.9 nm (42.5 km) SW. Retrieved 2013/04/29 03:39 UTC (6 years ago):

TAF TAF EGPM 290337Z 2903/2915 22005KT 9999 SCT030 PROB30 TEMPO 2903/2906 7000 SHRAGS BECMG 2906/2909 32015KT PROB40 TEMPO 2906/2915 6000 SHRA SHGS BKN012CB